createdAt,value
2017-01-16T00:03:33.978Z,1016.14
2017-01-16T00:08:30.278Z,1016.15
2017-01-16T00:13:27.266Z,1016.13
2017-01-16T00:18:23.495Z,1016.06
2017-01-16T00:23:21.097Z,1016.13
2017-01-16T00:28:17.156Z,1016.35
2017-01-16T00:33:13.676Z,1016.31
2017-01-16T00:38:10.134Z,1016.27
2017-01-16T00:43:06.653Z,1016.32
2017-01-16T00:48:03.054Z,1016.36
2017-01-16T00:52:59.312Z,1016.39
2017-01-16T00:57:56.331Z,1016.35
2017-01-16T01:02:52.531Z,1016.36
2017-01-16T01:07:49.751Z,1016.27
2017-01-16T01:12:46.749Z,1016.20
2017-01-16T01:17:43.124Z,1016.27
2017-01-16T01:22:39.379Z,1016.38
2017-01-16T01:27:37.120Z,1016.44
2017-01-16T01:32:33.475Z,1016.40
2017-01-16T01:37:29.987Z,1016.46
2017-01-16T01:42:26.427Z,1016.48
2017-01-16T01:47:22.713Z,1016.50
2017-01-16T01:52:19.116Z,1016.50
2017-01-16T01:57:15.447Z,1016.50
2017-01-16T02:02:11.823Z,1016.61
2017-01-16T02:07:08.162Z,1016.54
2017-01-16T02:12:04.713Z,1016.65
2017-01-16T02:17:01.486Z,1016.59
2017-01-16T02:21:58.133Z,1016.71
2017-01-16T02:26:55.733Z,1016.80
2017-01-16T02:31:52.039Z,1016.80
2017-01-16T02:36:48.855Z,1016.86
2017-01-16T02:41:45.267Z,1016.82
2017-01-16T02:46:42.556Z,1016.91
2017-01-16T02:51:39.546Z,1017.04
2017-01-16T02:56:35.914Z,1017.03
2017-01-16T03:01:32.350Z,1017.01
2017-01-16T03:06:28.997Z,1017.01
2017-01-16T03:11:25.317Z,1017.05
2017-01-16T03:16:21.775Z,1017.03
2017-01-16T03:21:18.914Z,1017.12
2017-01-16T03:26:15.234Z,1017.12
2017-01-16T03:31:12.913Z,1017.16
2017-01-16T03:36:10.390Z,1017.18
2017-01-16T03:41:07.251Z,1017.19
2017-01-16T03:46:03.795Z,1017.21
2017-01-16T03:50:59.971Z,1017.33
2017-01-16T03:55:57.027Z,1017.26
2017-01-16T04:00:53.612Z,1017.26
2017-01-16T04:05:50.156Z,1017.42
2017-01-16T04:10:46.732Z,1017.35
2017-01-16T04:15:43.489Z,1017.42
2017-01-16T04:20:40.310Z,1017.46
2017-01-16T04:25:36.969Z,1017.44
2017-01-16T04:30:33.889Z,1017.46
2017-01-16T04:35:30.256Z,1017.50
2017-01-16T04:40:26.266Z,1017.46
2017-01-16T04:45:22.585Z,1017.56
2017-01-16T04:50:19.066Z,1017.61
2017-01-16T04:55:16.852Z,1017.63
2017-01-16T05:00:13.005Z,1017.72
2017-01-16T05:05:10.507Z,1017.73
2017-01-16T05:10:06.878Z,1017.77
2017-01-16T05:20:06.202Z,1017.82
2017-01-16T05:25:02.609Z,1017.96
2017-01-16T05:29:59.139Z,1017.99
2017-01-16T05:34:56.513Z,1017.97
2017-01-16T05:39:52.720Z,1018.03
2017-01-16T05:44:48.940Z,1018.24
2017-01-16T05:49:45.199Z,1018.27
2017-01-16T05:54:41.616Z,1018.35
2017-01-16T05:59:38.763Z,1018.29
2017-01-16T06:04:35.454Z,1018.41
2017-01-16T06:09:32.053Z,1018.33
2017-01-16T06:14:28.498Z,1018.45
2017-01-16T06:19:24.979Z,1018.48
2017-01-16T06:24:21.816Z,1018.50
2017-01-16T06:29:18.265Z,1018.62
2017-01-16T06:34:14.675Z,1018.62
2017-01-16T06:39:10.787Z,1018.64
2017-01-16T06:44:07.475Z,1018.70
2017-01-16T06:49:03.707Z,1018.76
2017-01-16T06:54:00.164Z,1018.80
2017-01-16T06:58:56.530Z,1018.87
2017-01-16T07:03:53.043Z,1018.86
2017-01-16T07:08:49.389Z,1018.90
2017-01-16T07:13:45.821Z,1018.88
2017-01-16T07:18:42.687Z,1019.02
2017-01-16T07:23:39.041Z,1019.05
2017-01-16T07:28:35.948Z,1019.18
2017-01-16T07:33:32.929Z,1019.24
2017-01-16T07:38:29.387Z,1019.33
2017-01-16T07:43:25.810Z,1019.36
2017-01-16T07:48:23.270Z,1019.43
2017-01-16T07:53:19.518Z,1019.45
2017-01-16T07:58:16.027Z,1019.55
2017-01-16T08:03:12.729Z,1019.54
2017-01-16T08:08:09.146Z,1019.62
2017-01-16T08:13:05.778Z,1019.65
2017-01-16T08:18:02.240Z,1019.79
2017-01-16T08:22:58.690Z,1019.84
2017-01-16T08:27:55.074Z,1019.83
2017-01-16T08:32:52.120Z,1019.87
2017-01-16T08:37:49.413Z,1019.98
2017-01-16T08:42:45.696Z,1019.92
2017-01-16T08:47:42.362Z,1020.02
2017-01-16T08:52:38.788Z,1020.17
2017-01-16T08:57:35.210Z,1020.17
2017-01-16T09:02:31.802Z,1020.19
2017-01-16T09:07:28.994Z,1020.30
2017-01-16T09:12:25.518Z,1020.34
2017-01-16T09:17:21.978Z,1020.41
2017-01-16T09:22:18.771Z,1020.34
2017-01-16T09:27:15.072Z,1020.39
2017-01-16T09:32:11.572Z,1020.47
2017-01-16T09:37:08.299Z,1020.53
2017-01-16T09:42:04.886Z,1020.50
2017-01-16T09:47:00.885Z,1020.57
2017-01-16T09:51:57.051Z,1020.68
2017-01-16T09:56:53.377Z,1020.62
2017-01-16T10:01:49.724Z,1020.56
2017-01-16T10:06:46.097Z,1020.61
2017-01-16T10:11:42.860Z,1020.73
2017-01-16T10:16:40.005Z,1020.80
2017-01-16T10:21:36.460Z,1020.77
2017-01-16T10:26:33.649Z,1020.89
2017-01-16T10:31:30.037Z,1020.88
2017-01-16T10:36:26.283Z,1020.79
2017-01-16T10:41:22.912Z,1020.79
2017-01-16T10:46:19.617Z,1020.90
2017-01-16T10:51:16.136Z,1020.87
2017-01-16T10:56:13.341Z,1020.80
2017-01-16T11:01:09.798Z,1020.79
2017-01-16T11:06:06.507Z,1020.82
2017-01-16T11:11:02.969Z,1020.83
2017-01-16T11:16:00.109Z,1020.74
2017-01-16T11:20:58.208Z,1020.83
2017-01-16T11:25:54.958Z,1020.84
2017-01-16T11:30:52.788Z,1020.85
2017-01-16T11:35:48.580Z,1020.87
2017-01-16T11:40:44.971Z,1020.88
2017-01-16T11:45:41.200Z,1020.87
2017-01-16T11:50:37.581Z,1020.86
2017-01-16T11:55:34.007Z,1020.82
2017-01-16T12:00:30.230Z,1020.90
2017-01-16T12:05:26.463Z,1021.02
2017-01-16T12:10:23.071Z,1021.00
2017-01-16T12:15:19.314Z,1021.01
2017-01-16T12:20:15.562Z,1021.01
2017-01-16T12:25:11.602Z,1021.12
2017-01-16T12:30:07.669Z,1021.17
2017-01-16T12:35:03.844Z,1021.11
2017-01-16T12:39:59.568Z,1021.02
2017-01-16T12:44:56.201Z,1020.99
2017-01-16T12:49:52.688Z,1021.02
2017-01-16T12:54:49.097Z,1021.06
2017-01-16T12:59:45.516Z,1021.06
2017-01-16T13:04:42.300Z,1021.01
2017-01-16T13:09:38.685Z,1021.10
2017-01-16T13:14:35.180Z,1021.08
2017-01-16T13:19:31.524Z,1021.11
2017-01-16T13:24:28.163Z,1021.25
2017-01-16T13:29:24.802Z,1021.25
2017-01-16T13:34:21.143Z,1021.37
2017-01-16T13:39:18.050Z,1021.32
2017-01-16T13:44:14.284Z,1021.45
2017-01-16T13:49:10.249Z,1021.54
2017-01-16T13:54:06.339Z,1021.53
2017-01-16T13:59:02.679Z,1021.63
2017-01-16T14:04:00.293Z,1021.70
2017-01-16T14:08:56.410Z,1021.73
2017-01-16T14:13:52.409Z,1021.69
2017-01-16T14:18:48.350Z,1021.75
2017-01-16T14:23:44.604Z,1021.88
2017-01-16T14:28:41.141Z,1022.04
2017-01-16T14:33:37.495Z,1022.04
2017-01-16T14:38:33.645Z,1022.10
2017-01-16T14:43:30.639Z,1022.04
2017-01-16T14:48:26.620Z,1022.10
2017-01-16T14:53:22.722Z,1022.24
2017-01-16T14:58:18.723Z,1022.32
2017-01-16T15:03:15.905Z,1022.33
2017-01-16T15:08:12.053Z,1022.34
2017-01-16T15:13:08.302Z,1022.48
2017-01-16T15:18:04.639Z,1022.53
2017-01-16T15:23:00.563Z,1022.55
2017-01-16T15:27:57.803Z,1022.62
2017-01-16T15:32:53.983Z,1022.60
2017-01-16T15:37:50.403Z,1022.58
2017-01-16T15:42:46.614Z,1022.59
2017-01-16T15:47:42.960Z,1022.67
2017-01-16T15:52:39.238Z,1022.75
2017-01-16T15:57:35.244Z,1022.77
2017-01-16T16:02:32.820Z,1022.83
2017-01-16T16:07:28.656Z,1022.93
2017-01-16T16:12:24.962Z,1022.90
2017-01-16T16:17:21.255Z,1023.05
2017-01-16T16:22:18.364Z,1023.06
2017-01-16T16:27:14.530Z,1023.11
2017-01-16T16:32:10.742Z,1023.19
2017-01-16T16:37:06.718Z,1023.11
2017-01-16T16:42:02.931Z,1023.13
2017-01-16T16:46:58.887Z,1023.23
2017-01-16T16:51:55.112Z,1023.27
2017-01-16T16:56:51.990Z,1023.27
2017-01-16T17:01:48.307Z,1023.33
2017-01-16T17:06:45.047Z,1023.31
2017-01-16T17:11:41.418Z,1023.44
2017-01-16T17:16:37.526Z,1023.39
2017-01-16T17:21:34.144Z,1023.50
2017-01-16T17:26:30.464Z,1023.60
2017-01-16T17:31:26.617Z,1023.73
2017-01-16T17:36:23.739Z,1023.65
2017-01-16T17:41:20.043Z,1023.60
2017-01-16T17:46:16.559Z,1023.62
2017-01-16T17:51:12.793Z,1023.78
2017-01-16T17:56:09.121Z,1023.78
2017-01-16T18:01:05.462Z,1023.82
2017-01-16T18:06:01.574Z,1023.85
2017-01-16T18:10:57.899Z,1023.84
2017-01-16T18:15:54.239Z,1023.83
2017-01-16T18:20:50.738Z,1023.85
2017-01-16T18:25:47.452Z,1023.94
2017-01-16T18:30:44.498Z,1023.86
2017-01-16T18:35:40.766Z,1023.99
2017-01-16T18:40:36.915Z,1024.11
2017-01-16T18:45:33.146Z,1024.13
2017-01-16T18:50:30.373Z,1024.24
2017-01-16T18:55:26.560Z,1024.38
2017-01-16T19:00:22.857Z,1024.38
2017-01-16T19:05:18.958Z,1024.48
2017-01-16T19:10:15.830Z,1024.54
2017-01-16T19:15:11.988Z,1024.53
2017-01-16T19:20:08.350Z,1024.69
2017-01-16T19:25:04.589Z,1024.75
2017-01-16T19:30:00.810Z,1024.76
2017-01-16T19:34:57.170Z,1024.89
2017-01-16T19:39:53.474Z,1024.87
2017-01-16T19:44:49.608Z,1024.98
2017-01-16T19:49:45.944Z,1025.00
2017-01-16T19:54:42.314Z,1025.14
2017-01-16T19:59:38.703Z,1025.21
2017-01-16T20:04:35.124Z,1025.19
2017-01-16T20:09:31.445Z,1025.28
2017-01-16T20:14:27.295Z,1025.28
2017-01-16T20:19:23.593Z,1025.32
2017-01-16T20:24:20.689Z,1025.42
2017-01-16T20:29:16.630Z,1025.48
2017-01-16T20:34:13.395Z,1025.56
2017-01-16T20:39:10.054Z,1025.62
2017-01-16T20:44:06.012Z,1025.63
2017-01-16T20:49:03.691Z,1025.72
2017-01-16T20:53:59.716Z,1025.84
2017-01-16T20:58:56.079Z,1025.80
2017-01-16T21:03:52.415Z,1025.89
2017-01-16T21:08:49.131Z,1025.92
2017-01-16T21:13:45.650Z,1025.90
2017-01-16T21:18:41.712Z,1025.91
2017-01-16T21:23:38.583Z,1025.92
2017-01-16T21:28:34.810Z,1026.04
2017-01-16T21:33:31.148Z,1026.12
2017-01-16T21:38:27.382Z,1026.11
2017-01-16T21:43:23.739Z,1026.21
2017-01-16T21:48:19.965Z,1026.31
2017-01-16T21:53:16.234Z,1026.27
2017-01-16T21:58:12.409Z,1026.35
2017-01-16T22:03:08.704Z,1026.40
2017-01-16T22:08:05.190Z,1026.43
2017-01-16T22:13:02.207Z,1026.54
2017-01-16T22:17:58.449Z,1026.47
2017-01-16T22:22:54.710Z,1026.42
2017-01-16T22:27:51.068Z,1026.42
2017-01-16T22:32:47.530Z,1026.56
2017-01-16T22:37:43.680Z,1026.70
2017-01-16T22:42:40.227Z,1026.59
2017-01-16T22:47:36.548Z,1026.67
2017-01-16T22:52:32.879Z,1026.81
2017-01-16T22:57:29.389Z,1026.74
2017-01-16T23:02:25.809Z,1026.79
2017-01-16T23:07:22.127Z,1026.83
2017-01-16T23:12:18.464Z,1026.78
2017-01-16T23:17:14.842Z,1026.81
2017-01-16T23:22:11.145Z,1026.83
2017-01-16T23:27:07.495Z,1026.82
2017-01-16T23:32:03.487Z,1026.86
2017-01-16T23:36:59.761Z,1026.74
2017-01-16T23:41:55.874Z,1026.89
2017-01-16T23:46:52.142Z,1026.91
2017-01-16T23:51:48.200Z,1027.10
2017-01-16T23:56:44.532Z,1027.03
